sensor_id;sensor_type;location;lat;lon;timestamp;temperature;humidity
12967;DHT22;6548;49.996;8.238;2024-01-07T00:02:19;5.20;99.90
12967;DHT22;6548;49.996;8.238;2024-01-07T00:04:44;5.20;99.90
12967;DHT22;6548;49.996;8.238;2024-01-07T00:07:10;5.20;99.90
12967;DHT22;6548;49.996;8.238;2024-01-07T00:09:35;5.20;99.90
12967;DHT22;6548;49.996;8.238;2024-01-07T00:12:01;5.20;99.90
12967;DHT22;6548;49.996;8.238;2024-01-07T00:14:26;5.20;99.90
12967;DHT22;6548;49.996;8.238;2024-01-07T00:16:52;5.20;99.90
12967;DHT22;6548;49.996;8.238;2024-01-07T00:19:17;5.20;99.90
12967;DHT22;6548;49.996;8.238;2024-01-07T00:21:43;5.20;99.90
12967;DHT22;6548;49.996;8.238;2024-01-07T00:24:08;5.10;99.90
12967;DHT22;6548;49.996;8.238;2024-01-07T00:26:34;5.10;99.90
12967;DHT22;6548;49.996;8.238;2024-01-07T00:28:59;5.10;99.90
12967;DHT22;6548;49.996;8.238;2024-01-07T00:31:25;5.10;99.90
12967;DHT22;6548;49.996;8.238;2024-01-07T00:33:50;5.10;99.90
12967;DHT22;6548;49.996;8.238;2024-01-07T00:36:16;5.10;99.90
12967;DHT22;6548;49.996;8.238;2024-01-07T00:38:41;5.10;99.90
12967;DHT22;6548;49.996;8.238;2024-01-07T00:41:07;5.10;99.90
12967;DHT22;6548;49.996;8.238;2024-01-07T00:43:32;5.10;99.90
12967;DHT22;6548;49.996;8.238;2024-01-07T00:45:58;5.10;99.90
12967;DHT22;6548;49.996;8.238;2024-01-07T00:48:23;5.10;99.90
12967;DHT22;6548;49.996;8.238;2024-01-07T00:50:49;5.00;99.90
12967;DHT22;6548;49.996;8.238;2024-01-07T00:53:15;5.00;99.90
12967;DHT22;6548;49.996;8.238;2024-01-07T00:55:40;5.10;99.90
12967;DHT22;6548;49.996;8.238;2024-01-07T00:58:06;5.00;99.90
12967;DHT22;6548;49.996;8.238;2024-01-07T01:00:31;5.00;99.90
12967;DHT22;6548;49.996;8.238;2024-01-07T01:02:57;5.00;99.90
12967;DHT22;6548;49.996;8.238;2024-01-07T01:05:23;5.00;99.90
12967;DHT22;6548;49.996;8.238;2024-01-07T01:07:49;5.10;99.90
12967;DHT22;6548;49.996;8.238;2024-01-07T01:10:14;5.10;99.90
12967;DHT22;6548;49.996;8.238;2024-01-07T01:12:42;5.00;99.90
12967;DHT22;6548;49.996;8.238;2024-01-07T01:15:08;5.00;99.90
12967;DHT22;6548;49.996;8.238;2024-01-07T01:17:34;5.10;99.90
12967;DHT22;6548;49.996;8.238;2024-01-07T01:19:59;5.00;99.90
12967;DHT22;6548;49.996;8.238;2024-01-07T01:22:25;5.00;99.90
12967;DHT22;6548;49.996;8.238;2024-01-07T01:24:50;5.00;99.90
12967;DHT22;6548;49.996;8.238;2024-01-07T01:27:18;5.00;99.90
12967;DHT22;6548;49.996;8.238;2024-01-07T01:29:43;5.00;99.90
12967;DHT22;6548;49.996;8.238;2024-01-07T01:32:09;5.00;99.90
12967;DHT22;6548;49.996;8.238;2024-01-07T01:34:35;5.00;99.90
12967;DHT22;6548;49.996;8.238;2024-01-07T01:37:01;5.00;99.90
12967;DHT22;6548;49.996;8.238;2024-01-07T01:39:27;5.00;99.90
12967;DHT22;6548;49.996;8.238;2024-01-07T01:41:53;5.00;99.90
12967;DHT22;6548;49.996;8.238;2024-01-07T01:44:18;5.00;99.90
12967;DHT22;6548;49.996;8.238;2024-01-07T01:46:45;5.10;99.90
12967;DHT22;6548;49.996;8.238;2024-01-07T01:49:11;5.00;99.90
12967;DHT22;6548;49.996;8.238;2024-01-07T01:51:37;5.00;99.90
12967;DHT22;6548;49.996;8.238;2024-01-07T01:54:04;5.10;99.90
12967;DHT22;6548;49.996;8.238;2024-01-07T01:56:30;5.00;99.90
12967;DHT22;6548;49.996;8.238;2024-01-07T01:58:56;5.00;99.90
12967;DHT22;6548;49.996;8.238;2024-01-07T02:01:23;5.00;99.90
12967;DHT22;6548;49.996;8.238;2024-01-07T02:03:49;5.00;99.90
12967;DHT22;6548;49.996;8.238;2024-01-07T02:06:15;5.00;99.90
12967;DHT22;6548;49.996;8.238;2024-01-07T02:08:41;5.00;99.90
12967;DHT22;6548;49.996;8.238;2024-01-07T02:11:20;5.00;99.90
12967;DHT22;6548;49.996;8.238;2024-01-07T02:13:46;4.90;99.90
12967;DHT22;6548;49.996;8.238;2024-01-07T02:16:12;5.00;99.90
12967;DHT22;6548;49.996;8.238;2024-01-07T02:18:41;4.90;99.90
12967;DHT22;6548;49.996;8.238;2024-01-07T02:21:10;5.00;99.90
12967;DHT22;6548;49.996;8.238;2024-01-07T02:23:36;5.00;99.90
12967;DHT22;6548;49.996;8.238;2024-01-07T02:26:02;5.00;99.90
12967;DHT22;6548;49.996;8.238;2024-01-07T02:28:29;5.00;99.90
12967;DHT22;6548;49.996;8.238;2024-01-07T02:30:54;5.00;99.90
12967;DHT22;6548;49.996;8.238;2024-01-07T02:33:20;5.00;99.90
12967;DHT22;6548;49.996;8.238;2024-01-07T02:35:45;5.00;99.90
12967;DHT22;6548;49.996;8.238;2024-01-07T02:38:11;5.00;99.90
12967;DHT22;6548;49.996;8.238;2024-01-07T02:40:36;5.10;99.90
12967;DHT22;6548;49.996;8.238;2024-01-07T02:43:02;5.00;99.90
12967;DHT22;6548;49.996;8.238;2024-01-07T02:45:28;5.00;99.90
12967;DHT22;6548;49.996;8.238;2024-01-07T02:47:53;5.10;99.90
12967;DHT22;6548;49.996;8.238;2024-01-07T02:50:19;5.10;99.90
12967;DHT22;6548;49.996;8.238;2024-01-07T02:52:44;5.00;99.90
12967;DHT22;6548;49.996;8.238;2024-01-07T02:55:10;5.00;99.90
12967;DHT22;6548;49.996;8.238;2024-01-07T02:57:35;5.00;99.90
12967;DHT22;6548;49.996;8.238;2024-01-07T03:00:01;5.00;99.90
12967;DHT22;6548;49.996;8.238;2024-01-07T03:02:27;5.00;99.90
12967;DHT22;6548;49.996;8.238;2024-01-07T03:04:53;5.00;99.90
12967;DHT22;6548;49.996;8.238;2024-01-07T03:07:18;5.00;99.90
12967;DHT22;6548;49.996;8.238;2024-01-07T03:09:44;5.00;99.90
12967;DHT22;6548;49.996;8.238;2024-01-07T03:12:10;5.00;99.90
12967;DHT22;6548;49.996;8.238;2024-01-07T03:14:35;5.00;99.90
12967;DHT22;6548;49.996;8.238;2024-01-07T03:17:01;5.10;99.90
12967;DHT22;6548;49.996;8.238;2024-01-07T03:19:26;5.00;99.90
12967;DHT22;6548;49.996;8.238;2024-01-07T03:21:52;5.00;99.90
12967;DHT22;6548;49.996;8.238;2024-01-07T03:24:17;5.00;99.90
12967;DHT22;6548;49.996;8.238;2024-01-07T03:26:43;5.10;99.90
12967;DHT22;6548;49.996;8.238;2024-01-07T03:29:08;5.00;99.90
12967;DHT22;6548;49.996;8.238;2024-01-07T03:31:34;5.00;99.90
12967;DHT22;6548;49.996;8.238;2024-01-07T03:33:59;5.00;99.90
12967;DHT22;6548;49.996;8.238;2024-01-07T03:36:25;5.00;99.90
12967;DHT22;6548;49.996;8.238;2024-01-07T03:38:51;5.00;99.90
12967;DHT22;6548;49.996;8.238;2024-01-07T03:41:18;4.90;99.90
12967;DHT22;6548;49.996;8.238;2024-01-07T03:43:45;4.90;99.90
12967;DHT22;6548;49.996;8.238;2024-01-07T03:46:11;5.00;99.90
12967;DHT22;6548;49.996;8.238;2024-01-07T03:48:36;5.00;99.90
12967;DHT22;6548;49.996;8.238;2024-01-07T03:51:02;5.00;99.90
12967;DHT22;6548;49.996;8.238;2024-01-07T03:53:28;5.00;99.90
12967;DHT22;6548;49.996;8.238;2024-01-07T03:55:53;4.90;99.90
12967;DHT22;6548;49.996;8.238;2024-01-07T03:58:19;4.90;99.90
12967;DHT22;6548;49.996;8.238;2024-01-07T04:00:44;5.00;99.90
12967;DHT22;6548;49.996;8.238;2024-01-07T04:03:10;4.90;99.90
12967;DHT22;6548;49.996;8.238;2024-01-07T04:05:35;4.90;99.90
12967;DHT22;6548;49.996;8.238;2024-01-07T04:08:02;4.90;99.90
12967;DHT22;6548;49.996;8.238;2024-01-07T04:10:28;4.80;99.90
12967;DHT22;6548;49.996;8.238;2024-01-07T04:12:53;4.80;99.90
12967;DHT22;6548;49.996;8.238;2024-01-07T04:15:19;4.90;99.90
12967;DHT22;6548;49.996;8.238;2024-01-07T04:17:45;4.90;99.90
12967;DHT22;6548;49.996;8.238;2024-01-07T04:20:13;4.90;99.90
12967;DHT22;6548;49.996;8.238;2024-01-07T04:22:39;4.90;99.90
12967;DHT22;6548;49.996;8.238;2024-01-07T04:25:05;4.90;99.90
12967;DHT22;6548;49.996;8.238;2024-01-07T04:27:34;4.90;99.90
12967;DHT22;6548;49.996;8.238;2024-01-07T04:30:00;4.90;99.90
12967;DHT22;6548;49.996;8.238;2024-01-07T04:32:26;4.90;99.90
12967;DHT22;6548;49.996;8.238;2024-01-07T04:34:51;4.90;99.90
12967;DHT22;6548;49.996;8.238;2024-01-07T04:37:17;4.90;99.90
12967;DHT22;6548;49.996;8.238;2024-01-07T04:39:42;4.80;99.90
12967;DHT22;6548;49.996;8.238;2024-01-07T04:42:08;4.90;99.90
12967;DHT22;6548;49.996;8.238;2024-01-07T04:44:33;4.90;99.90
12967;DHT22;6548;49.996;8.238;2024-01-07T04:46:59;4.90;99.90
12967;DHT22;6548;49.996;8.238;2024-01-07T04:49:24;4.90;99.90
12967;DHT22;6548;49.996;8.238;2024-01-07T04:51:50;4.90;99.90
12967;DHT22;6548;49.996;8.238;2024-01-07T04:54:15;4.90;99.90
12967;DHT22;6548;49.996;8.238;2024-01-07T04:56:41;4.90;99.90
12967;DHT22;6548;49.996;8.238;2024-01-07T04:59:07;4.90;99.90
12967;DHT22;6548;49.996;8.238;2024-01-07T05:01:33;4.90;99.90
12967;DHT22;6548;49.996;8.238;2024-01-07T05:03:59;4.90;99.90
12967;DHT22;6548;49.996;8.238;2024-01-07T05:06:24;4.90;99.90
12967;DHT22;6548;49.996;8.238;2024-01-07T05:08:50;4.90;99.90
12967;DHT22;6548;49.996;8.238;2024-01-07T05:11:15;4.90;99.90
12967;DHT22;6548;49.996;8.238;2024-01-07T05:13:42;4.90;99.90
12967;DHT22;6548;49.996;8.238;2024-01-07T05:16:08;4.90;99.90
12967;DHT22;6548;49.996;8.238;2024-01-07T05:18:33;4.80;99.90
12967;DHT22;6548;49.996;8.238;2024-01-07T05:20:59;4.80;99.90
12967;DHT22;6548;49.996;8.238;2024-01-07T05:23:24;4.80;99.90
12967;DHT22;6548;49.996;8.238;2024-01-07T05:25:50;4.80;99.90
12967;DHT22;6548;49.996;8.238;2024-01-07T05:28:15;4.80;99.90
12967;DHT22;6548;49.996;8.238;2024-01-07T05:30:44;4.80;99.90
12967;DHT22;6548;49.996;8.238;2024-01-07T05:33:10;4.80;99.90
12967;DHT22;6548;49.996;8.238;2024-01-07T05:35:35;4.80;99.90
12967;DHT22;6548;49.996;8.238;2024-01-07T05:38:01;4.80;99.90
12967;DHT22;6548;49.996;8.238;2024-01-07T05:40:26;4.80;99.90
12967;DHT22;6548;49.996;8.238;2024-01-07T05:42:52;4.80;99.90
12967;DHT22;6548;49.996;8.238;2024-01-07T05:45:18;4.80;99.90
12967;DHT22;6548;49.996;8.238;2024-01-07T05:47:43;4.80;99.90
12967;DHT22;6548;49.996;8.238;2024-01-07T05:50:09;4.80;99.90
12967;DHT22;6548;49.996;8.238;2024-01-07T05:52:35;4.80;99.90
12967;DHT22;6548;49.996;8.238;2024-01-07T05:55:01;4.80;99.90
12967;DHT22;6548;49.996;8.238;2024-01-07T05:57:26;4.80;99.90
12967;DHT22;6548;49.996;8.238;2024-01-07T05:59:52;4.90;99.90
12967;DHT22;6548;49.996;8.238;2024-01-07T06:02:18;4.90;99.90
12967;DHT22;6548;49.996;8.238;2024-01-07T06:04:43;4.90;99.90
12967;DHT22;6548;49.996;8.238;2024-01-07T06:07:09;4.90;99.90
12967;DHT22;6548;49.996;8.238;2024-01-07T06:09:35;4.90;99.90
12967;DHT22;6548;49.996;8.238;2024-01-07T06:12:00;4.90;99.90
12967;DHT22;6548;49.996;8.238;2024-01-07T06:14:26;4.90;99.90
12967;DHT22;6548;49.996;8.238;2024-01-07T06:16:52;4.90;99.90
12967;DHT22;6548;49.996;8.238;2024-01-07T06:19:18;5.00;99.90
12967;DHT22;6548;49.996;8.238;2024-01-07T06:21:43;4.90;99.90
12967;DHT22;6548;49.996;8.238;2024-01-07T06:24:09;4.90;99.90
12967;DHT22;6548;49.996;8.238;2024-01-07T06:26:35;5.00;99.90
12967;DHT22;6548;49.996;8.238;2024-01-07T06:29:00;5.00;99.90
12967;DHT22;6548;49.996;8.238;2024-01-07T06:31:26;5.00;99.90
12967;DHT22;6548;49.996;8.238;2024-01-07T06:33:52;5.00;99.90
12967;DHT22;6548;49.996;8.238;2024-01-07T06:36:18;5.00;99.90
12967;DHT22;6548;49.996;8.238;2024-01-07T06:38:43;5.00;99.90
12967;DHT22;6548;49.996;8.238;2024-01-07T06:41:12;5.00;99.90
12967;DHT22;6548;49.996;8.238;2024-01-07T06:43:38;5.00;99.90
12967;DHT22;6548;49.996;8.238;2024-01-07T06:46:04;5.00;99.90
12967;DHT22;6548;49.996;8.238;2024-01-07T06:48:29;4.90;99.90
12967;DHT22;6548;49.996;8.238;2024-01-07T06:50:55;5.00;99.90
12967;DHT22;6548;49.996;8.238;2024-01-07T06:53:20;5.00;99.90
12967;DHT22;6548;49.996;8.238;2024-01-07T06:55:46;5.00;99.90
12967;DHT22;6548;49.996;8.238;2024-01-07T06:58:12;5.00;99.90
12967;DHT22;6548;49.996;8.238;2024-01-07T07:00:38;5.10;99.90
12967;DHT22;6548;49.996;8.238;2024-01-07T07:03:03;5.00;99.90
12967;DHT22;6548;49.996;8.238;2024-01-07T07:05:30;4.90;99.90
12967;DHT22;6548;49.996;8.238;2024-01-07T07:07:56;4.90;99.90
12967;DHT22;6548;49.996;8.238;2024-01-07T07:10:21;4.90;99.90
12967;DHT22;6548;49.996;8.238;2024-01-07T07:12:47;4.90;99.90
12967;DHT22;6548;49.996;8.238;2024-01-07T07:15:13;4.90;99.90
12967;DHT22;6548;49.996;8.238;2024-01-07T07:17:38;4.90;99.90
12967;DHT22;6548;49.996;8.238;2024-01-07T07:20:05;4.90;99.90
12967;DHT22;6548;49.996;8.238;2024-01-07T07:22:31;4.90;99.90
12967;DHT22;6548;49.996;8.238;2024-01-07T07:24:57;4.90;99.90
12967;DHT22;6548;49.996;8.238;2024-01-07T07:27:22;4.90;99.90
12967;DHT22;6548;49.996;8.238;2024-01-07T07:29:48;4.90;99.90
12967;DHT22;6548;49.996;8.238;2024-01-07T07:32:13;4.80;99.90
12967;DHT22;6548;49.996;8.238;2024-01-07T07:34:39;4.80;99.90
12967;DHT22;6548;49.996;8.238;2024-01-07T07:37:04;4.80;99.90
12967;DHT22;6548;49.996;8.238;2024-01-07T07:39:29;4.80;99.90
12967;DHT22;6548;49.996;8.238;2024-01-07T07:41:55;4.90;99.90
12967;DHT22;6548;49.996;8.238;2024-01-07T07:44:21;4.80;99.90
12967;DHT22;6548;49.996;8.238;2024-01-07T07:46:46;4.90;99.90
12967;DHT22;6548;49.996;8.238;2024-01-07T07:49:12;4.80;99.90
12967;DHT22;6548;49.996;8.238;2024-01-07T07:51:38;4.80;99.90
12967;DHT22;6548;49.996;8.238;2024-01-07T07:54:03;4.80;99.90
12967;DHT22;6548;49.996;8.238;2024-01-07T07:56:29;4.80;99.90
12967;DHT22;6548;49.996;8.238;2024-01-07T07:58:54;4.80;99.90
12967;DHT22;6548;49.996;8.238;2024-01-07T08:01:20;4.80;99.90
12967;DHT22;6548;49.996;8.238;2024-01-07T08:03:46;4.80;99.90
12967;DHT22;6548;49.996;8.238;2024-01-07T08:06:11;4.80;99.90
12967;DHT22;6548;49.996;8.238;2024-01-07T08:08:37;4.80;99.90
12967;DHT22;6548;49.996;8.238;2024-01-07T08:11:02;4.80;99.90
12967;DHT22;6548;49.996;8.238;2024-01-07T08:13:31;4.80;99.90
12967;DHT22;6548;49.996;8.238;2024-01-07T08:15:56;4.80;99.90
12967;DHT22;6548;49.996;8.238;2024-01-07T08:18:22;4.90;99.90
12967;DHT22;6548;49.996;8.238;2024-01-07T08:20:48;4.90;99.90
12967;DHT22;6548;49.996;8.238;2024-01-07T08:23:13;5.00;99.90
12967;DHT22;6548;49.996;8.238;2024-01-07T08:25:39;5.00;99.90
12967;DHT22;6548;49.996;8.238;2024-01-07T08:28:04;5.00;99.90
12967;DHT22;6548;49.996;8.238;2024-01-07T08:30:30;5.00;99.90
12967;DHT22;6548;49.996;8.238;2024-01-07T08:32:55;5.00;99.90
12967;DHT22;6548;49.996;8.238;2024-01-07T08:35:21;5.00;99.90
12967;DHT22;6548;49.996;8.238;2024-01-07T08:37:47;5.00;99.90
12967;DHT22;6548;49.996;8.238;2024-01-07T08:40:13;5.00;99.90
12967;DHT22;6548;49.996;8.238;2024-01-07T08:42:39;5.00;99.90
12967;DHT22;6548;49.996;8.238;2024-01-07T08:45:04;5.00;99.90
12967;DHT22;6548;49.996;8.238;2024-01-07T08:47:31;5.00;99.90
12967;DHT22;6548;49.996;8.238;2024-01-07T08:49:57;5.00;99.90
12967;DHT22;6548;49.996;8.238;2024-01-07T08:52:23;5.00;99.90
12967;DHT22;6548;49.996;8.238;2024-01-07T08:54:48;5.00;99.90
12967;DHT22;6548;49.996;8.238;2024-01-07T08:57:14;5.00;99.90
12967;DHT22;6548;49.996;8.238;2024-01-07T08:59:39;5.00;99.90
12967;DHT22;6548;49.996;8.238;2024-01-07T09:02:05;5.10;99.90
12967;DHT22;6548;49.996;8.238;2024-01-07T09:04:30;5.10;99.90
12967;DHT22;6548;49.996;8.238;2024-01-07T09:06:57;5.10;99.90
12967;DHT22;6548;49.996;8.238;2024-01-07T09:09:23;5.10;99.90
12967;DHT22;6548;49.996;8.238;2024-01-07T09:11:49;5.20;99.90
12967;DHT22;6548;49.996;8.238;2024-01-07T09:14:15;5.30;99.90
12967;DHT22;6548;49.996;8.238;2024-01-07T09:16:40;5.30;99.90
12967;DHT22;6548;49.996;8.238;2024-01-07T09:19:06;5.30;99.90
12967;DHT22;6548;49.996;8.238;2024-01-07T09:21:31;5.30;99.90
12967;DHT22;6548;49.996;8.238;2024-01-07T09:23:57;5.40;99.90
12967;DHT22;6548;49.996;8.238;2024-01-07T09:26:22;5.40;99.90
12967;DHT22;6548;49.996;8.238;2024-01-07T09:28:48;5.40;99.90
12967;DHT22;6548;49.996;8.238;2024-01-07T09:31:13;5.40;99.90
12967;DHT22;6548;49.996;8.238;2024-01-07T09:33:39;5.30;99.90
12967;DHT22;6548;49.996;8.238;2024-01-07T09:36:05;5.30;99.90
12967;DHT22;6548;49.996;8.238;2024-01-07T09:38:32;5.40;99.90
12967;DHT22;6548;49.996;8.238;2024-01-07T09:40:58;5.30;99.90
12967;DHT22;6548;49.996;8.238;2024-01-07T09:43:23;5.30;99.90
12967;DHT22;6548;49.996;8.238;2024-01-07T09:45:49;5.30;99.90
12967;DHT22;6548;49.996;8.238;2024-01-07T09:48:15;5.20;99.90
12967;DHT22;6548;49.996;8.238;2024-01-07T09:50:42;5.20;99.90
12967;DHT22;6548;49.996;8.238;2024-01-07T09:53:07;5.20;99.90
12967;DHT22;6548;49.996;8.238;2024-01-07T09:55:41;5.10;99.90
12967;DHT22;6548;49.996;8.238;2024-01-07T09:58:10;5.00;99.90
12967;DHT22;6548;49.996;8.238;2024-01-07T10:00:36;5.10;99.90
12967;DHT22;6548;49.996;8.238;2024-01-07T10:03:03;5.10;99.90
12967;DHT22;6548;49.996;8.238;2024-01-07T10:05:29;5.10;99.90
12967;DHT22;6548;49.996;8.238;2024-01-07T10:07:54;5.00;99.90
12967;DHT22;6548;49.996;8.238;2024-01-07T10:10:22;5.10;99.90
12967;DHT22;6548;49.996;8.238;2024-01-07T10:12:48;5.10;99.90
12967;DHT22;6548;49.996;8.238;2024-01-07T10:15:13;5.10;99.90
12967;DHT22;6548;49.996;8.238;2024-01-07T10:17:42;5.00;99.90
12967;DHT22;6548;49.996;8.238;2024-01-07T10:20:08;5.00;99.90
12967;DHT22;6548;49.996;8.238;2024-01-07T10:22:38;5.00;99.90
12967;DHT22;6548;49.996;8.238;2024-01-07T10:25:04;4.90;99.90
12967;DHT22;6548;49.996;8.238;2024-01-07T10:27:29;4.80;99.90
12967;DHT22;6548;49.996;8.238;2024-01-07T10:29:58;4.90;99.90
12967;DHT22;6548;49.996;8.238;2024-01-07T10:32:24;5.00;99.90
12967;DHT22;6548;49.996;8.238;2024-01-07T10:34:51;4.90;99.90
12967;DHT22;6548;49.996;8.238;2024-01-07T10:37:20;4.90;99.90
12967;DHT22;6548;49.996;8.238;2024-01-07T10:39:45;4.90;99.90
12967;DHT22;6548;49.996;8.238;2024-01-07T10:42:12;5.00;99.90
12967;DHT22;6548;49.996;8.238;2024-01-07T10:44:38;5.10;99.90
12967;DHT22;6548;49.996;8.238;2024-01-07T10:47:06;5.10;99.90
12967;DHT22;6548;49.996;8.238;2024-01-07T10:49:32;5.10;99.90
12967;DHT22;6548;49.996;8.238;2024-01-07T10:52:07;5.10;99.90
12967;DHT22;6548;49.996;8.238;2024-01-07T10:54:34;5.10;99.90
12967;DHT22;6548;49.996;8.238;2024-01-07T10:57:32;5.00;99.90
12967;DHT22;6548;49.996;8.238;2024-01-07T11:00:00;4.90;99.90
12967;DHT22;6548;49.996;8.238;2024-01-07T11:02:26;4.80;99.90
12967;DHT22;6548;49.996;8.238;2024-01-07T11:07:41;4.80;99.90
12967;DHT22;6548;49.996;8.238;2024-01-07T11:10:25;4.70;99.90
12967;DHT22;6548;49.996;8.238;2024-01-07T11:12:57;4.70;99.90
12967;DHT22;6548;49.996;8.238;2024-01-07T11:18:18;4.60;99.90
12967;DHT22;6548;49.996;8.238;2024-01-07T11:20:44;4.60;99.90
12967;DHT22;6548;49.996;8.238;2024-01-07T11:23:33;4.60;99.90
12967;DHT22;6548;49.996;8.238;2024-01-07T11:26:02;4.60;99.90
12967;DHT22;6548;49.996;8.238;2024-01-07T11:28:56;4.60;99.90
12967;DHT22;6548;49.996;8.238;2024-01-07T11:31:43;4.70;99.90
12967;DHT22;6548;49.996;8.238;2024-01-07T11:34:09;4.60;99.90
12967;DHT22;6548;49.996;8.238;2024-01-07T11:36:38;4.70;99.90
12967;DHT22;6548;49.996;8.238;2024-01-07T11:39:04;4.70;99.90
12967;DHT22;6548;49.996;8.238;2024-01-07T11:41:34;4.70;99.90
12967;DHT22;6548;49.996;8.238;2024-01-07T11:44:00;4.70;99.90
12967;DHT22;6548;49.996;8.238;2024-01-07T11:46:26;4.80;99.90
12967;DHT22;6548;49.996;8.238;2024-01-07T11:48:54;4.80;99.90
12967;DHT22;6548;49.996;8.238;2024-01-07T11:51:31;4.90;99.90
12967;DHT22;6548;49.996;8.238;2024-01-07T11:53:58;4.90;99.90
12967;DHT22;6548;49.996;8.238;2024-01-07T11:56:25;4.90;99.90
12967;DHT22;6548;49.996;8.238;2024-01-07T11:58:51;4.80;99.90
12967;DHT22;6548;49.996;8.238;2024-01-07T12:01:17;4.90;99.90
12967;DHT22;6548;49.996;8.238;2024-01-07T12:03:44;4.90;99.90
12967;DHT22;6548;49.996;8.238;2024-01-07T12:06:10;5.00;99.90
12967;DHT22;6548;49.996;8.238;2024-01-07T12:08:45;5.00;99.90
12967;DHT22;6548;49.996;8.238;2024-01-07T12:11:12;5.10;99.90
12967;DHT22;6548;49.996;8.238;2024-01-07T12:13:39;5.10;99.90
12967;DHT22;6548;49.996;8.238;2024-01-07T12:16:05;5.00;99.90
12967;DHT22;6548;49.996;8.238;2024-01-07T12:18:31;4.90;99.90
12967;DHT22;6548;49.996;8.238;2024-01-07T12:20:58;4.80;99.90
12967;DHT22;6548;49.996;8.238;2024-01-07T12:23:24;4.80;99.90
12967;DHT22;6548;49.996;8.238;2024-01-07T12:25:50;4.70;99.90
12967;DHT22;6548;49.996;8.238;2024-01-07T12:28:19;4.50;99.90
12967;DHT22;6548;49.996;8.238;2024-01-07T12:30:45;4.50;99.90
12967;DHT22;6548;49.996;8.238;2024-01-07T12:33:17;4.50;99.90
12967;DHT22;6548;49.996;8.238;2024-01-07T12:35:45;4.50;99.90
12967;DHT22;6548;49.996;8.238;2024-01-07T12:38:10;4.40;99.90
12967;DHT22;6548;49.996;8.238;2024-01-07T12:40:36;4.40;99.90
12967;DHT22;6548;49.996;8.238;2024-01-07T12:43:02;4.40;99.90
12967;DHT22;6548;49.996;8.238;2024-01-07T12:45:27;4.40;99.90
12967;DHT22;6548;49.996;8.238;2024-01-07T12:47:53;4.40;99.90
12967;DHT22;6548;49.996;8.238;2024-01-07T12:50:21;4.30;99.90
12967;DHT22;6548;49.996;8.238;2024-01-07T12:52:48;4.30;99.90
12967;DHT22;6548;49.996;8.238;2024-01-07T12:55:14;4.30;99.90
12967;DHT22;6548;49.996;8.238;2024-01-07T12:57:39;4.30;99.90
12967;DHT22;6548;49.996;8.238;2024-01-07T13:00:05;4.20;99.90
12967;DHT22;6548;49.996;8.238;2024-01-07T13:02:32;4.30;99.90
12967;DHT22;6548;49.996;8.238;2024-01-07T13:04:58;4.20;99.90
12967;DHT22;6548;49.996;8.238;2024-01-07T13:07:23;4.10;99.90
12967;DHT22;6548;49.996;8.238;2024-01-07T13:09:49;4.10;99.90
12967;DHT22;6548;49.996;8.238;2024-01-07T13:12:14;4.10;99.90
12967;DHT22;6548;49.996;8.238;2024-01-07T13:14:40;4.10;99.90
12967;DHT22;6548;49.996;8.238;2024-01-07T13:17:07;4.10;99.90
12967;DHT22;6548;49.996;8.238;2024-01-07T13:19:33;4.00;99.90
12967;DHT22;6548;49.996;8.238;2024-01-07T13:21:59;3.90;99.90
12967;DHT22;6548;49.996;8.238;2024-01-07T13:24:26;3.90;99.90
12967;DHT22;6548;49.996;8.238;2024-01-07T13:26:53;4.00;99.90
12967;DHT22;6548;49.996;8.238;2024-01-07T13:29:18;4.00;99.90
12967;DHT22;6548;49.996;8.238;2024-01-07T13:31:44;3.90;99.90
12967;DHT22;6548;49.996;8.238;2024-01-07T13:34:09;4.00;99.90
12967;DHT22;6548;49.996;8.238;2024-01-07T13:36:35;3.90;99.90
12967;DHT22;6548;49.996;8.238;2024-01-07T13:39:01;3.80;99.90
12967;DHT22;6548;49.996;8.238;2024-01-07T13:41:27;3.80;99.90
12967;DHT22;6548;49.996;8.238;2024-01-07T13:43:57;3.60;99.90
12967;DHT22;6548;49.996;8.238;2024-01-07T13:46:22;3.60;99.90
12967;DHT22;6548;49.996;8.238;2024-01-07T13:48:51;3.50;99.90
12967;DHT22;6548;49.996;8.238;2024-01-07T13:51:19;3.50;99.90
12967;DHT22;6548;49.996;8.238;2024-01-07T13:53:45;3.50;99.90
12967;DHT22;6548;49.996;8.238;2024-01-07T13:56:13;3.50;99.90
12967;DHT22;6548;49.996;8.238;2024-01-07T13:58:39;3.50;99.90
12967;DHT22;6548;49.996;8.238;2024-01-07T14:01:05;3.60;99.90
12967;DHT22;6548;49.996;8.238;2024-01-07T14:03:33;3.50;99.90
12967;DHT22;6548;49.996;8.238;2024-01-07T14:05:59;3.50;99.90
12967;DHT22;6548;49.996;8.238;2024-01-07T14:08:26;3.50;99.90
12967;DHT22;6548;49.996;8.238;2024-01-07T14:10:51;3.50;99.90
12967;DHT22;6548;49.996;8.238;2024-01-07T14:13:17;3.50;99.90
12967;DHT22;6548;49.996;8.238;2024-01-07T14:15:42;3.50;99.90
12967;DHT22;6548;49.996;8.238;2024-01-07T14:18:09;3.50;99.90
12967;DHT22;6548;49.996;8.238;2024-01-07T14:20:35;3.60;99.90
12967;DHT22;6548;49.996;8.238;2024-01-07T14:23:01;3.60;99.90
12967;DHT22;6548;49.996;8.238;2024-01-07T14:25:26;3.50;99.90
12967;DHT22;6548;49.996;8.238;2024-01-07T14:27:52;3.50;99.90
12967;DHT22;6548;49.996;8.238;2024-01-07T14:30:17;3.50;99.90
12967;DHT22;6548;49.996;8.238;2024-01-07T14:32:43;3.40;99.90
12967;DHT22;6548;49.996;8.238;2024-01-07T14:35:11;3.30;99.90
12967;DHT22;6548;49.996;8.238;2024-01-07T14:37:36;3.50;99.90
12967;DHT22;6548;49.996;8.238;2024-01-07T14:40:02;3.60;99.90
12967;DHT22;6548;49.996;8.238;2024-01-07T14:42:29;3.60;99.90
12967;DHT22;6548;49.996;8.238;2024-01-07T14:44:55;3.50;99.90
12967;DHT22;6548;49.996;8.238;2024-01-07T14:47:22;3.40;99.90
12967;DHT22;6548;49.996;8.238;2024-01-07T14:49:47;3.30;99.90
12967;DHT22;6548;49.996;8.238;2024-01-07T14:52:13;3.20;99.90
12967;DHT22;6548;49.996;8.238;2024-01-07T14:54:38;3.10;99.90
12967;DHT22;6548;49.996;8.238;2024-01-07T14:57:04;3.10;99.90
12967;DHT22;6548;49.996;8.238;2024-01-07T14:59:30;3.00;99.90
12967;DHT22;6548;49.996;8.238;2024-01-07T15:01:55;3.00;99.90
12967;DHT22;6548;49.996;8.238;2024-01-07T15:04:21;3.00;99.90
12967;DHT22;6548;49.996;8.238;2024-01-07T15:06:46;2.90;99.90
12967;DHT22;6548;49.996;8.238;2024-01-07T15:09:14;2.80;99.90
12967;DHT22;6548;49.996;8.238;2024-01-07T15:11:40;2.80;99.90
12967;DHT22;6548;49.996;8.238;2024-01-07T15:14:12;2.90;99.90
12967;DHT22;6548;49.996;8.238;2024-01-07T15:16:37;2.80;99.90
12967;DHT22;6548;49.996;8.238;2024-01-07T15:19:03;2.80;99.90
12967;DHT22;6548;49.996;8.238;2024-01-07T15:21:29;2.80;99.90
12967;DHT22;6548;49.996;8.238;2024-01-07T15:23:54;2.70;99.90
12967;DHT22;6548;49.996;8.238;2024-01-07T15:26:20;2.70;99.90
12967;DHT22;6548;49.996;8.238;2024-01-07T15:28:46;2.70;99.90
12967;DHT22;6548;49.996;8.238;2024-01-07T15:31:11;2.60;99.90
12967;DHT22;6548;49.996;8.238;2024-01-07T15:33:37;2.50;99.90
12967;DHT22;6548;49.996;8.238;2024-01-07T15:36:03;2.50;99.90
12967;DHT22;6548;49.996;8.238;2024-01-07T15:38:29;2.40;99.90
12967;DHT22;6548;49.996;8.238;2024-01-07T15:40:54;2.30;99.90
12967;DHT22;6548;49.996;8.238;2024-01-07T15:43:20;2.30;99.90
12967;DHT22;6548;49.996;8.238;2024-01-07T15:45:45;2.30;99.90
12967;DHT22;6548;49.996;8.238;2024-01-07T15:48:11;2.30;99.90
12967;DHT22;6548;49.996;8.238;2024-01-07T15:50:36;2.30;99.90
12967;DHT22;6548;49.996;8.238;2024-01-07T15:53:02;2.20;99.90
12967;DHT22;6548;49.996;8.238;2024-01-07T15:55:28;2.30;99.90
12967;DHT22;6548;49.996;8.238;2024-01-07T15:57:53;2.20;99.90
12967;DHT22;6548;49.996;8.238;2024-01-07T16:00:19;2.10;99.90
12967;DHT22;6548;49.996;8.238;2024-01-07T16:02:45;2.10;99.90